sensor_id;sensor_type;location;lat;lon;timestamp;temperature;humidity
15455;DHT22;21057;51.024;7.540;2023-07-13T00:00:41;18.80;95.40
15455;DHT22;21057;51.024;7.540;2023-07-13T00:03:08;18.90;95.60
15455;DHT22;21057;51.024;7.540;2023-07-13T00:05:35;18.90;94.90
15455;DHT22;21057;51.024;7.540;2023-07-13T00:08:04;18.70;95.40
15455;DHT22;21057;51.024;7.540;2023-07-13T00:10:30;18.70;96.00
15455;DHT22;21057;51.024;7.540;2023-07-13T00:12:58;18.70;96.20
15455;DHT22;21057;51.024;7.540;2023-07-13T00:15:25;18.70;96.80
15455;DHT22;21057;51.024;7.540;2023-07-13T00:17:54;18.70;95.90
15455;DHT22;21057;51.024;7.540;2023-07-13T00:20:22;18.60;95.70
15455;DHT22;21057;51.024;7.540;2023-07-13T00:22:51;18.50;96.80
15455;DHT22;21057;51.024;7.540;2023-07-13T00:25:20;18.40;97.00
15455;DHT22;21057;51.024;7.540;2023-07-13T00:27:49;18.20;97.50
15455;DHT22;21057;51.024;7.540;2023-07-13T00:30:16;18.20;97.30
15455;DHT22;21057;51.024;7.540;2023-07-13T00:32:44;18.10;97.90
15455;DHT22;21057;51.024;7.540;2023-07-13T00:35:12;18.10;98.80
15455;DHT22;21057;51.024;7.540;2023-07-13T00:37:40;17.90;97.90
15455;DHT22;21057;51.024;7.540;2023-07-13T00:40:09;17.70;99.50
15455;DHT22;21057;51.024;7.540;2023-07-13T00:42:37;17.60;99.40
15455;DHT22;21057;51.024;7.540;2023-07-13T00:45:06;17.50;99.90
15455;DHT22;21057;51.024;7.540;2023-07-13T00:47:34;17.40;99.90
15455;DHT22;21057;51.024;7.540;2023-07-13T00:50:01;17.40;99.90
15455;DHT22;21057;51.024;7.540;2023-07-13T00:52:29;17.40;99.90
15455;DHT22;21057;51.024;7.540;2023-07-13T00:54:56;17.40;99.90
15455;DHT22;21057;51.024;7.540;2023-07-13T00:57:23;17.30;99.90
15455;DHT22;21057;51.024;7.540;2023-07-13T00:59:54;17.20;99.90
15455;DHT22;21057;51.024;7.540;2023-07-13T01:02:22;17.10;99.90
15455;DHT22;21057;51.024;7.540;2023-07-13T01:04:49;17.00;99.90
15455;DHT22;21057;51.024;7.540;2023-07-13T01:07:16;17.00;99.90
15455;DHT22;21057;51.024;7.540;2023-07-13T01:09:44;16.90;99.90
15455;DHT22;21057;51.024;7.540;2023-07-13T01:12:11;16.80;99.90
15455;DHT22;21057;51.024;7.540;2023-07-13T01:14:39;16.80;99.90
15455;DHT22;21057;51.024;7.540;2023-07-13T01:17:08;16.80;99.90
15455;DHT22;21057;51.024;7.540;2023-07-13T01:19:38;16.80;99.90
15455;DHT22;21057;51.024;7.540;2023-07-13T01:22:09;16.80;99.90
15455;DHT22;21057;51.024;7.540;2023-07-13T01:24:40;16.80;99.90
15455;DHT22;21057;51.024;7.540;2023-07-13T01:27:09;16.70;99.90
15455;DHT22;21057;51.024;7.540;2023-07-13T01:29:37;16.60;99.90
15455;DHT22;21057;51.024;7.540;2023-07-13T01:32:08;16.60;99.90
15455;DHT22;21057;51.024;7.540;2023-07-13T01:34:36;16.50;99.90
15455;DHT22;21057;51.024;7.540;2023-07-13T01:37:04;16.40;99.90
15455;DHT22;21057;51.024;7.540;2023-07-13T01:39:32;16.50;99.90
15455;DHT22;21057;51.024;7.540;2023-07-13T01:41:59;16.40;99.90
15455;DHT22;21057;51.024;7.540;2023-07-13T01:44:26;16.50;99.90
15455;DHT22;21057;51.024;7.540;2023-07-13T01:46:53;16.50;99.90
15455;DHT22;21057;51.024;7.540;2023-07-13T01:49:20;16.40;99.90
15455;DHT22;21057;51.024;7.540;2023-07-13T01:51:46;16.30;99.90
15455;DHT22;21057;51.024;7.540;2023-07-13T01:54:13;16.40;99.90
15455;DHT22;21057;51.024;7.540;2023-07-13T01:56:41;16.40;99.90
15455;DHT22;21057;51.024;7.540;2023-07-13T01:59:08;16.40;99.90
15455;DHT22;21057;51.024;7.540;2023-07-13T02:01:35;16.40;99.90
15455;DHT22;21057;51.024;7.540;2023-07-13T02:04:02;16.40;99.90
15455;DHT22;21057;51.024;7.540;2023-07-13T02:06:29;16.40;99.90
15455;DHT22;21057;51.024;7.540;2023-07-13T02:08:57;16.30;99.90
15455;DHT22;21057;51.024;7.540;2023-07-13T02:11:24;16.30;99.90
15455;DHT22;21057;51.024;7.540;2023-07-13T02:14:00;16.20;99.90
15455;DHT22;21057;51.024;7.540;2023-07-13T02:16:28;16.00;99.90
15455;DHT22;21057;51.024;7.540;2023-07-13T02:18:56;16.00;99.90
15455;DHT22;21057;51.024;7.540;2023-07-13T02:21:23;15.90;99.90
15455;DHT22;21057;51.024;7.540;2023-07-13T02:23:50;15.90;99.90
15455;DHT22;21057;51.024;7.540;2023-07-13T02:26:18;15.90;99.90
15455;DHT22;21057;51.024;7.540;2023-07-13T02:28:45;15.80;99.90
15455;DHT22;21057;51.024;7.540;2023-07-13T02:31:15;15.80;99.90
15455;DHT22;21057;51.024;7.540;2023-07-13T02:33:42;15.90;99.90
15455;DHT22;21057;51.024;7.540;2023-07-13T02:36:09;15.90;99.90
15455;DHT22;21057;51.024;7.540;2023-07-13T02:38:36;15.80;99.90
15455;DHT22;21057;51.024;7.540;2023-07-13T02:41:03;15.80;99.90
15455;DHT22;21057;51.024;7.540;2023-07-13T02:43:30;15.90;99.90
15455;DHT22;21057;51.024;7.540;2023-07-13T02:45:58;15.80;99.90
15455;DHT22;21057;51.024;7.540;2023-07-13T02:48:31;15.80;99.90
15455;DHT22;21057;51.024;7.540;2023-07-13T02:50:57;15.70;99.90
15455;DHT22;21057;51.024;7.540;2023-07-13T02:53:24;15.60;99.90
15455;DHT22;21057;51.024;7.540;2023-07-13T02:55:52;15.60;99.90
15455;DHT22;21057;51.024;7.540;2023-07-13T02:58:19;15.60;99.90
15455;DHT22;21057;51.024;7.540;2023-07-13T03:00:47;15.50;99.90
15455;DHT22;21057;51.024;7.540;2023-07-13T03:03:16;15.40;99.90
15455;DHT22;21057;51.024;7.540;2023-07-13T03:05:45;15.60;99.90
15455;DHT22;21057;51.024;7.540;2023-07-13T03:08:16;15.50;99.90
15455;DHT22;21057;51.024;7.540;2023-07-13T03:10:43;15.60;99.90
15455;DHT22;21057;51.024;7.540;2023-07-13T03:13:10;15.60;99.90
15455;DHT22;21057;51.024;7.540;2023-07-13T03:15:37;15.40;99.90
15455;DHT22;21057;51.024;7.540;2023-07-13T03:18:03;15.30;99.90
15455;DHT22;21057;51.024;7.540;2023-07-13T03:20:32;15.30;99.90
15455;DHT22;21057;51.024;7.540;2023-07-13T03:23:01;15.30;99.90
15455;DHT22;21057;51.024;7.540;2023-07-13T03:25:28;15.20;99.90
15455;DHT22;21057;51.024;7.540;2023-07-13T03:27:55;15.20;99.90
15455;DHT22;21057;51.024;7.540;2023-07-13T03:30:22;15.10;99.90
15455;DHT22;21057;51.024;7.540;2023-07-13T03:32:49;15.10;99.90
15455;DHT22;21057;51.024;7.540;2023-07-13T03:35:16;15.20;99.90
15455;DHT22;21057;51.024;7.540;2023-07-13T03:37:43;15.10;99.90
15455;DHT22;21057;51.024;7.540;2023-07-13T03:40:12;15.10;99.90
15455;DHT22;21057;51.024;7.540;2023-07-13T03:42:39;15.10;99.90
15455;DHT22;21057;51.024;7.540;2023-07-13T03:45:07;15.10;99.90
15455;DHT22;21057;51.024;7.540;2023-07-13T03:47:34;15.10;99.90
15455;DHT22;21057;51.024;7.540;2023-07-13T03:50:01;15.10;99.90
15455;DHT22;21057;51.024;7.540;2023-07-13T03:52:28;15.20;99.90
15455;DHT22;21057;51.024;7.540;2023-07-13T03:54:55;15.10;99.90
15455;DHT22;21057;51.024;7.540;2023-07-13T03:57:24;15.10;99.90
15455;DHT22;21057;51.024;7.540;2023-07-13T03:59:50;15.20;99.90
15455;DHT22;21057;51.024;7.540;2023-07-13T04:02:17;15.30;99.90
15455;DHT22;21057;51.024;7.540;2023-07-13T04:04:44;15.20;99.90
15455;DHT22;21057;51.024;7.540;2023-07-13T04:07:11;15.20;99.90
15455;DHT22;21057;51.024;7.540;2023-07-13T04:09:38;15.20;99.90
15455;DHT22;21057;51.024;7.540;2023-07-13T04:12:06;15.20;99.90
15455;DHT22;21057;51.024;7.540;2023-07-13T04:14:34;15.10;99.90
15455;DHT22;21057;51.024;7.540;2023-07-13T04:17:01;15.20;99.90
15455;DHT22;21057;51.024;7.540;2023-07-13T04:19:27;15.30;99.90
15455;DHT22;21057;51.024;7.540;2023-07-13T04:21:54;15.40;99.90
15455;DHT22;21057;51.024;7.540;2023-07-13T04:24:21;15.50;99.90
15455;DHT22;21057;51.024;7.540;2023-07-13T04:26:48;15.50;99.90
15455;DHT22;21057;51.024;7.540;2023-07-13T04:29:15;15.50;99.90
15455;DHT22;21057;51.024;7.540;2023-07-13T04:31:43;15.60;99.90
15455;DHT22;21057;51.024;7.540;2023-07-13T04:34:11;15.60;99.90
15455;DHT22;21057;51.024;7.540;2023-07-13T04:36:38;15.70;99.90
15455;DHT22;21057;51.024;7.540;2023-07-13T04:39:05;15.70;99.90
15455;DHT22;21057;51.024;7.540;2023-07-13T04:41:32;15.80;99.90
15455;DHT22;21057;51.024;7.540;2023-07-13T04:43:59;15.90;99.90
15455;DHT22;21057;51.024;7.540;2023-07-13T04:46:26;15.90;99.90
15455;DHT22;21057;51.024;7.540;2023-07-13T04:48:54;16.00;99.90
15455;DHT22;21057;51.024;7.540;2023-07-13T04:51:21;16.10;99.90
15455;DHT22;21057;51.024;7.540;2023-07-13T04:53:47;16.10;99.90
15455;DHT22;21057;51.024;7.540;2023-07-13T04:56:14;16.20;99.90
15455;DHT22;21057;51.024;7.540;2023-07-13T04:58:41;16.20;99.90
15455;DHT22;21057;51.024;7.540;2023-07-13T05:01:09;16.40;99.90
15455;DHT22;21057;51.024;7.540;2023-07-13T05:03:36;16.50;99.90
15455;DHT22;21057;51.024;7.540;2023-07-13T05:06:07;16.50;99.90
15455;DHT22;21057;51.024;7.540;2023-07-13T05:08:35;16.50;99.90
15455;DHT22;21057;51.024;7.540;2023-07-13T05:11:03;16.80;99.90
15455;DHT22;21057;51.024;7.540;2023-07-13T05:13:31;16.90;99.90
15455;DHT22;21057;51.024;7.540;2023-07-13T05:15:59;16.80;99.90
15455;DHT22;21057;51.024;7.540;2023-07-13T05:18:26;16.80;99.90
15455;DHT22;21057;51.024;7.540;2023-07-13T05:21:01;16.90;99.90
15455;DHT22;21057;51.024;7.540;2023-07-13T05:23:29;17.00;99.90
15455;DHT22;21057;51.024;7.540;2023-07-13T05:25:57;16.90;99.90
15455;DHT22;21057;51.024;7.540;2023-07-13T05:28:24;17.00;99.90
15455;DHT22;21057;51.024;7.540;2023-07-13T05:30:52;17.10;99.90
15455;DHT22;21057;51.024;7.540;2023-07-13T05:33:19;17.10;99.90
15455;DHT22;21057;51.024;7.540;2023-07-13T05:35:46;17.10;99.90
15455;DHT22;21057;51.024;7.540;2023-07-13T05:38:13;17.20;99.90
15455;DHT22;21057;51.024;7.540;2023-07-13T05:40:43;17.40;99.90
15455;DHT22;21057;51.024;7.540;2023-07-13T05:43:11;17.50;99.90
15455;DHT22;21057;51.024;7.540;2023-07-13T05:45:38;17.60;99.90
15455;DHT22;21057;51.024;7.540;2023-07-13T05:48:05;17.80;99.90
15455;DHT22;21057;51.024;7.540;2023-07-13T05:50:31;17.80;99.90
15455;DHT22;21057;51.024;7.540;2023-07-13T05:52:58;17.70;99.90
15455;DHT22;21057;51.024;7.540;2023-07-13T05:55:25;17.70;99.90
15455;DHT22;21057;51.024;7.540;2023-07-13T05:57:53;17.70;99.90
15455;DHT22;21057;51.024;7.540;2023-07-13T06:00:20;17.80;99.90
15455;DHT22;21057;51.024;7.540;2023-07-13T06:02:47;17.80;99.90
15455;DHT22;21057;51.024;7.540;2023-07-13T06:05:14;18.10;99.90
15455;DHT22;21057;51.024;7.540;2023-07-13T06:07:42;18.10;99.90
15455;DHT22;21057;51.024;7.540;2023-07-13T06:10:09;18.20;99.90
15455;DHT22;21057;51.024;7.540;2023-07-13T06:12:36;18.20;99.90
15455;DHT22;21057;51.024;7.540;2023-07-13T06:15:06;18.30;99.90
15455;DHT22;21057;51.024;7.540;2023-07-13T06:17:33;18.30;99.90
15455;DHT22;21057;51.024;7.540;2023-07-13T06:20:00;18.20;99.90
15455;DHT22;21057;51.024;7.540;2023-07-13T06:22:27;18.00;99.90
15455;DHT22;21057;51.024;7.540;2023-07-13T06:24:55;18.20;99.90
15455;DHT22;21057;51.024;7.540;2023-07-13T06:27:23;18.20;99.90
15455;DHT22;21057;51.024;7.540;2023-07-13T06:29:50;18.40;99.90
15455;DHT22;21057;51.024;7.540;2023-07-13T06:32:18;18.30;99.90
15455;DHT22;21057;51.024;7.540;2023-07-13T06:34:45;18.30;99.90
15455;DHT22;21057;51.024;7.540;2023-07-13T06:37:12;18.40;99.90
15455;DHT22;21057;51.024;7.540;2023-07-13T06:39:39;18.30;99.90
15455;DHT22;21057;51.024;7.540;2023-07-13T06:42:06;18.10;99.90
15455;DHT22;21057;51.024;7.540;2023-07-13T06:44:33;18.10;99.90
15455;DHT22;21057;51.024;7.540;2023-07-13T06:47:00;18.10;99.90
15455;DHT22;21057;51.024;7.540;2023-07-13T06:49:28;18.00;99.90
15455;DHT22;21057;51.024;7.540;2023-07-13T06:51:55;18.10;99.90
15455;DHT22;21057;51.024;7.540;2023-07-13T06:54:22;18.10;99.90
15455;DHT22;21057;51.024;7.540;2023-07-13T06:56:48;18.30;99.90
15455;DHT22;21057;51.024;7.540;2023-07-13T06:59:15;18.40;99.90
15455;DHT22;21057;51.024;7.540;2023-07-13T07:01:42;18.60;99.90
15455;DHT22;21057;51.024;7.540;2023-07-13T07:04:09;18.70;99.90
15455;DHT22;21057;51.024;7.540;2023-07-13T07:06:37;18.80;99.90
15455;DHT22;21057;51.024;7.540;2023-07-13T07:09:04;19.00;99.90
15455;DHT22;21057;51.024;7.540;2023-07-13T07:11:31;19.00;99.90
15455;DHT22;21057;51.024;7.540;2023-07-13T07:13:58;18.80;99.90
15455;DHT22;21057;51.024;7.540;2023-07-13T07:16:26;18.70;99.90
15455;DHT22;21057;51.024;7.540;2023-07-13T07:18:52;18.60;99.90
15455;DHT22;21057;51.024;7.540;2023-07-13T07:21:19;18.80;99.90
15455;DHT22;21057;51.024;7.540;2023-07-13T07:23:49;18.80;99.90
15455;DHT22;21057;51.024;7.540;2023-07-13T07:26:16;19.00;99.90
15455;DHT22;21057;51.024;7.540;2023-07-13T07:28:43;19.20;99.90
15455;DHT22;21057;51.024;7.540;2023-07-13T07:31:10;19.20;99.90
15455;DHT22;21057;51.024;7.540;2023-07-13T07:33:37;19.20;99.90
15455;DHT22;21057;51.024;7.540;2023-07-13T07:36:05;18.80;99.90
15455;DHT22;21057;51.024;7.540;2023-07-13T07:38:32;18.80;99.90
15455;DHT22;21057;51.024;7.540;2023-07-13T07:41:02;19.00;99.90
15455;DHT22;21057;51.024;7.540;2023-07-13T07:43:29;19.40;99.90
15455;DHT22;21057;51.024;7.540;2023-07-13T07:45:57;19.40;99.90
15455;DHT22;21057;51.024;7.540;2023-07-13T07:48:24;19.50;99.90
15455;DHT22;21057;51.024;7.540;2023-07-13T07:50:51;19.50;99.90
15455;DHT22;21057;51.024;7.540;2023-07-13T07:53:18;19.30;99.90
15455;DHT22;21057;51.024;7.540;2023-07-13T07:55:45;19.10;99.90
15455;DHT22;21057;51.024;7.540;2023-07-13T07:58:14;19.20;99.90
15455;DHT22;21057;51.024;7.540;2023-07-13T08:00:41;19.30;99.90
15455;DHT22;21057;51.024;7.540;2023-07-13T08:03:08;19.50;99.90
15455;DHT22;21057;51.024;7.540;2023-07-13T08:05:36;19.80;99.90
15455;DHT22;21057;51.024;7.540;2023-07-13T08:08:03;19.80;99.90
15455;DHT22;21057;51.024;7.540;2023-07-13T08:10:30;19.70;99.90
15455;DHT22;21057;51.024;7.540;2023-07-13T08:12:57;20.10;99.90
15455;DHT22;21057;51.024;7.540;2023-07-13T08:15:25;20.30;99.90
15455;DHT22;21057;51.024;7.540;2023-07-13T08:17:52;20.50;99.90
15455;DHT22;21057;51.024;7.540;2023-07-13T08:20:19;20.60;99.90
15455;DHT22;21057;51.024;7.540;2023-07-13T08:22:46;20.50;99.90
15455;DHT22;21057;51.024;7.540;2023-07-13T08:25:13;20.60;99.90
15455;DHT22;21057;51.024;7.540;2023-07-13T08:27:39;20.80;99.90
15455;DHT22;21057;51.024;7.540;2023-07-13T08:30:07;21.00;99.90
15455;DHT22;21057;51.024;7.540;2023-07-13T08:32:36;21.40;99.90
15455;DHT22;21057;51.024;7.540;2023-07-13T08:35:04;21.40;99.90
15455;DHT22;21057;51.024;7.540;2023-07-13T08:37:31;21.50;99.90
15455;DHT22;21057;51.024;7.540;2023-07-13T08:39:58;21.30;99.90
15455;DHT22;21057;51.024;7.540;2023-07-13T08:42:39;21.30;99.90
15455;DHT22;21057;51.024;7.540;2023-07-13T08:45:17;21.30;99.90
15455;DHT22;21057;51.024;7.540;2023-07-13T08:47:51;21.50;99.90
15455;DHT22;21057;51.024;7.540;2023-07-13T08:50:21;21.80;99.90
15455;DHT22;21057;51.024;7.540;2023-07-13T08:52:49;21.60;99.90
15455;DHT22;21057;51.024;7.540;2023-07-13T08:55:19;21.50;99.90
15455;DHT22;21057;51.024;7.540;2023-07-13T08:57:50;21.60;99.90
15455;DHT22;21057;51.024;7.540;2023-07-13T09:00:20;21.20;99.90
15455;DHT22;21057;51.024;7.540;2023-07-13T09:02:52;21.10;99.90
15455;DHT22;21057;51.024;7.540;2023-07-13T09:05:27;21.30;99.90
15455;DHT22;21057;51.024;7.540;2023-07-13T09:08:26;21.60;99.90
15455;DHT22;21057;51.024;7.540;2023-07-13T09:11:02;21.50;99.90
15455;DHT22;21057;51.024;7.540;2023-07-13T09:13:39;21.40;99.90
15455;DHT22;21057;51.024;7.540;2023-07-13T09:16:10;21.60;99.90
15455;DHT22;21057;51.024;7.540;2023-07-13T09:18:42;22.00;99.90
15455;DHT22;21057;51.024;7.540;2023-07-13T09:21:13;22.30;99.90
15455;DHT22;21057;51.024;7.540;2023-07-13T09:23:41;22.10;99.90
15455;DHT22;21057;51.024;7.540;2023-07-13T09:26:12;22.10;99.90
15455;DHT22;21057;51.024;7.540;2023-07-13T09:28:42;22.70;99.90
15455;DHT22;21057;51.024;7.540;2023-07-13T09:31:14;22.90;99.20
15455;DHT22;21057;51.024;7.540;2023-07-13T09:33:43;23.00;99.10
15455;DHT22;21057;51.024;7.540;2023-07-13T09:36:22;23.00;98.40
15455;DHT22;21057;51.024;7.540;2023-07-13T09:38:58;22.60;98.80
15455;DHT22;21057;51.024;7.540;2023-07-13T09:41:34;22.20;99.20
15455;DHT22;21057;51.024;7.540;2023-07-13T09:44:11;22.00;99.40
15455;DHT22;21057;51.024;7.540;2023-07-13T09:46:39;22.20;99.70
15455;DHT22;21057;51.024;7.540;2023-07-13T09:49:10;22.50;99.30
15455;DHT22;21057;51.024;7.540;2023-07-13T09:51:37;22.00;99.10
15455;DHT22;21057;51.024;7.540;2023-07-13T09:54:05;22.00;99.80
15455;DHT22;21057;51.024;7.540;2023-07-13T09:56:31;21.60;99.70
15455;DHT22;21057;51.024;7.540;2023-07-13T09:58:59;21.70;99.90
15455;DHT22;21057;51.024;7.540;2023-07-13T10:01:34;21.80;99.90
15455;DHT22;21057;51.024;7.540;2023-07-13T10:04:01;22.00;99.90
15455;DHT22;21057;51.024;7.540;2023-07-13T10:06:30;22.50;99.60
15455;DHT22;21057;51.024;7.540;2023-07-13T10:08:57;22.20;99.90
15455;DHT22;21057;51.024;7.540;2023-07-13T10:11:27;22.40;99.60
15455;DHT22;21057;51.024;7.540;2023-07-13T10:13:56;23.00;99.00
15455;DHT22;21057;51.024;7.540;2023-07-13T10:16:26;23.20;98.00
15455;DHT22;21057;51.024;7.540;2023-07-13T10:18:57;22.80;98.10
15455;DHT22;21057;51.024;7.540;2023-07-13T10:21:28;22.80;98.10
15455;DHT22;21057;51.024;7.540;2023-07-13T10:24:05;22.60;98.10
15455;DHT22;21057;51.024;7.540;2023-07-13T10:26:36;22.70;98.70
15455;DHT22;21057;51.024;7.540;2023-07-13T10:29:10;22.70;99.30
15455;DHT22;21057;51.024;7.540;2023-07-13T10:31:39;23.10;97.90
15455;DHT22;21057;51.024;7.540;2023-07-13T10:34:09;23.60;97.10
15455;DHT22;21057;51.024;7.540;2023-07-13T10:36:40;23.40;97.10
15455;DHT22;21057;51.024;7.540;2023-07-13T10:39:15;23.30;96.10
15455;DHT22;21057;51.024;7.540;2023-07-13T10:41:44;22.70;96.90
15455;DHT22;21057;51.024;7.540;2023-07-13T10:44:20;22.70;97.70
15455;DHT22;21057;51.024;7.540;2023-07-13T10:46:52;22.80;96.50
15455;DHT22;21057;51.024;7.540;2023-07-13T10:49:20;22.60;96.90
15455;DHT22;21057;51.024;7.540;2023-07-13T10:51:48;23.00;95.90
15455;DHT22;21057;51.024;7.540;2023-07-13T10:54:20;22.70;95.80
15455;DHT22;21057;51.024;7.540;2023-07-13T10:56:52;22.40;96.50
15455;DHT22;21057;51.024;7.540;2023-07-13T10:59:26;22.60;97.20
15455;DHT22;21057;51.024;7.540;2023-07-13T11:01:57;22.70;96.60
15455;DHT22;21057;51.024;7.540;2023-07-13T11:04:25;22.60;96.40
15455;DHT22;21057;51.024;7.540;2023-07-13T11:06:57;23.20;95.10
15455;DHT22;21057;51.024;7.540;2023-07-13T11:09:37;23.50;94.80
15455;DHT22;21057;51.024;7.540;2023-07-13T11:12:26;23.80;93.70
15455;DHT22;21057;51.024;7.540;2023-07-13T11:15:11;23.60;94.00
15455;DHT22;21057;51.024;7.540;2023-07-13T11:17:48;23.90;93.80
15455;DHT22;21057;51.024;7.540;2023-07-13T11:20:23;23.60;93.60
15455;DHT22;21057;51.024;7.540;2023-07-13T11:22:52;23.00;93.40
15455;DHT22;21057;51.024;7.540;2023-07-13T11:25:30;22.90;94.80
15455;DHT22;21057;51.024;7.540;2023-07-13T11:30:49;22.70;94.40
15455;DHT22;21057;51.024;7.540;2023-07-13T11:33:19;22.80;95.00
15455;DHT22;21057;51.024;7.540;2023-07-13T11:35:51;22.60;93.90
15455;DHT22;21057;51.024;7.540;2023-07-13T11:38:21;22.80;95.00
15455;DHT22;21057;51.024;7.540;2023-07-13T11:40:53;23.00;95.00
15455;DHT22;21057;51.024;7.540;2023-07-13T11:43:21;23.50;95.30
15455;DHT22;21057;51.024;7.540;2023-07-13T11:45:49;23.50;94.50
15455;DHT22;21057;51.024;7.540;2023-07-13T11:48:22;23.30;94.70
15455;DHT22;21057;51.024;7.540;2023-07-13T11:50:52;23.10;94.60
15455;DHT22;21057;51.024;7.540;2023-07-13T11:53:20;22.90;95.00
15455;DHT22;21057;51.024;7.540;2023-07-13T11:55:47;23.40;94.50
15455;DHT22;21057;51.024;7.540;2023-07-13T11:58:19;23.90;93.70
15455;DHT22;21057;51.024;7.540;2023-07-13T12:00:48;24.80;92.30
15455;DHT22;21057;51.024;7.540;2023-07-13T12:03:18;25.10;91.50
15455;DHT22;21057;51.024;7.540;2023-07-13T12:05:55;25.00;91.10
15455;DHT22;21057;51.024;7.540;2023-07-13T12:08:23;24.40;92.10
15455;DHT22;21057;51.024;7.540;2023-07-13T12:10:58;23.60;92.90
15455;DHT22;21057;51.024;7.540;2023-07-13T12:13:28;22.90;93.60
15455;DHT22;21057;51.024;7.540;2023-07-13T12:15:56;22.60;94.20
15455;DHT22;21057;51.024;7.540;2023-07-13T12:18:31;22.60;95.10
15455;DHT22;21057;51.024;7.540;2023-07-13T12:20:59;22.60;95.80
15455;DHT22;21057;51.024;7.540;2023-07-13T12:23:29;23.10;95.30
15455;DHT22;21057;51.024;7.540;2023-07-13T12:25:58;23.30;93.50
15455;DHT22;21057;51.024;7.540;2023-07-13T12:28:33;23.00;94.00
15455;DHT22;21057;51.024;7.540;2023-07-13T12:31:03;23.00;94.00
15455;DHT22;21057;51.024;7.540;2023-07-13T12:33:32;23.10;94.10
15455;DHT22;21057;51.024;7.540;2023-07-13T12:36:00;23.30;94.30
15455;DHT22;21057;51.024;7.540;2023-07-13T12:38:29;22.90;94.10
15455;DHT22;21057;51.024;7.540;2023-07-13T12:40:56;23.50;94.50
15455;DHT22;21057;51.024;7.540;2023-07-13T12:43:26;23.40;94.00
15455;DHT22;21057;51.024;7.540;2023-07-13T12:46:01;23.50;94.20
15455;DHT22;21057;51.024;7.540;2023-07-13T12:48:28;23.50;93.70
15455;DHT22;21057;51.024;7.540;2023-07-13T12:50:56;23.80;93.70
15455;DHT22;21057;51.024;7.540;2023-07-13T12:53:30;23.50;93.00
15455;DHT22;21057;51.024;7.540;2023-07-13T12:55:59;23.50;94.20
15455;DHT22;21057;51.024;7.540;2023-07-13T12:58:29;23.40;93.80
15455;DHT22;21057;51.024;7.540;2023-07-13T13:01:00;23.20;93.70
15455;DHT22;21057;51.024;7.540;2023-07-13T13:03:31;23.30;93.80
15455;DHT22;21057;51.024;7.540;2023-07-13T13:06:02;23.30;93.20
15455;DHT22;21057;51.024;7.540;2023-07-13T13:08:30;23.20;94.00
15455;DHT22;21057;51.024;7.540;2023-07-13T13:10:58;23.30;94.00
15455;DHT22;21057;51.024;7.540;2023-07-13T13:13:25;23.90;94.60
15455;DHT22;21057;51.024;7.540;2023-07-13T13:15:52;23.90;92.60
15455;DHT22;21057;51.024;7.540;2023-07-13T13:18:22;23.90;93.70
15455;DHT22;21057;51.024;7.540;2023-07-13T13:20:51;23.60;93.60
15455;DHT22;21057;51.024;7.540;2023-07-13T13:23:19;23.60;93.40
15455;DHT22;21057;51.024;7.540;2023-07-13T13:25:49;24.00;93.80
15455;DHT22;21057;51.024;7.540;2023-07-13T13:28:19;24.40;93.20
15455;DHT22;21057;51.024;7.540;2023-07-13T13:30:50;24.20;92.50
15455;DHT22;21057;51.024;7.540;2023-07-13T13:33:21;24.30;92.00
15455;DHT22;21057;51.024;7.540;2023-07-13T13:35:48;24.60;91.40
15455;DHT22;21057;51.024;7.540;2023-07-13T13:38:17;25.00;91.40
15455;DHT22;21057;51.024;7.540;2023-07-13T13:40:45;25.20;89.30
15455;DHT22;21057;51.024;7.540;2023-07-13T13:43:16;25.30;90.60
15455;DHT22;21057;51.024;7.540;2023-07-13T13:45:44;25.60;87.10
15455;DHT22;21057;51.024;7.540;2023-07-13T13:48:15;25.20;85.60
15455;DHT22;21057;51.024;7.540;2023-07-13T13:50:45;25.00;84.60
15455;DHT22;21057;51.024;7.540;2023-07-13T13:53:15;25.00;83.00
15455;DHT22;21057;51.024;7.540;2023-07-13T13:55:42;25.00;83.60
15455;DHT22;21057;51.024;7.540;2023-07-13T13:58:09;24.80;82.60
15455;DHT22;21057;51.024;7.540;2023-07-13T14:00:37;24.80;82.80
15455;DHT22;21057;51.024;7.540;2023-07-13T14:03:04;25.30;83.20
15455;DHT22;21057;51.024;7.540;2023-07-13T14:05:32;25.30;81.90
15455;DHT22;21057;51.024;7.540;2023-07-13T14:08:01;25.50;83.70
15455;DHT22;21057;51.024;7.540;2023-07-13T14:10:28;25.10;80.90
15455;DHT22;21057;51.024;7.540;2023-07-13T14:12:56;24.70;80.90
15455;DHT22;21057;51.024;7.540;2023-07-13T14:15:26;24.90;84.40
15455;DHT22;21057;51.024;7.540;2023-07-13T14:17:53;25.00;84.70
15455;DHT22;21057;51.024;7.540;2023-07-13T14:20:22;25.60;83.30
15455;DHT22;21057;51.024;7.540;2023-07-13T14:22:51;25.80;81.70
15455;DHT22;21057;51.024;7.540;2023-07-13T14:25:20;26.00;78.80
15455;DHT22;21057;51.024;7.540;2023-07-13T14:27:51;25.90;80.70
15455;DHT22;21057;51.024;7.540;2023-07-13T14:30:22;26.50;78.50
15455;DHT22;21057;51.024;7.540;2023-07-13T14:32:49;27.00;80.00
15455;DHT22;21057;51.024;7.540;2023-07-13T14:35:21;27.00;76.40
15455;DHT22;21057;51.024;7.540;2023-07-13T14:37:49;27.40;77.00
15455;DHT22;21057;51.024;7.540;2023-07-13T14:40:19;27.70;77.70
15455;DHT22;21057;51.024;7.540;2023-07-13T14:42:48;28.10;75.10
15455;DHT22;21057;51.024;7.540;2023-07-13T14:45:15;28.00;74.00
15455;DHT22;21057;51.024;7.540;2023-07-13T14:47:43;27.60;73.70
15455;DHT22;21057;51.024;7.540;2023-07-13T14:50:14;27.90;73.90
15455;DHT22;21057;51.024;7.540;2023-07-13T14:52:42;27.30;75.40
15455;DHT22;21057;51.024;7.540;2023-07-13T14:55:12;26.70;76.20
15455;DHT22;21057;51.024;7.540;2023-07-13T14:57:41;26.90;76.40
15455;DHT22;21057;51.024;7.540;2023-07-13T15:00:14;27.00;74.90
15455;DHT22;21057;51.024;7.540;2023-07-13T15:02:43;26.30;74.00
15455;DHT22;21057;51.024;7.540;2023-07-13T15:05:16;26.10;76.90
15455;DHT22;21057;51.024;7.540;2023-07-13T15:07:43;26.10;76.70
15455;DHT22;21057;51.024;7.540;2023-07-13T15:10:15;25.80;75.80
15455;DHT22;21057;51.024;7.540;2023-07-13T15:12:43;25.50;75.00
15455;DHT22;21057;51.024;7.540;2023-07-13T15:15:11;24.90;76.50
15455;DHT22;21057;51.024;7.540;2023-07-13T15:17:40;24.60;81.40
15455;DHT22;21057;51.024;7.540;2023-07-13T15:20:17;24.50;79.60
15455;DHT22;21057;51.024;7.540;2023-07-13T15:22:45;24.00;81.30
15455;DHT22;21057;51.024;7.540;2023-07-13T15:25:17;24.00;81.50
15455;DHT22;21057;51.024;7.540;2023-07-13T15:27:46;23.60;84.80
15455;DHT22;21057;51.024;7.540;2023-07-13T15:30:14;23.80;83.70
15455;DHT22;21057;51.024;7.540;2023-07-13T15:32:41;24.00;84.20
15455;DHT22;21057;51.024;7.540;2023-07-13T15:35:19;24.00;83.70
15455;DHT22;21057;51.024;7.540;2023-07-13T15:37:48;24.00;82.00
15455;DHT22;21057;51.024;7.540;2023-07-13T15:40:16;23.50;82.30
15455;DHT22;21057;51.024;7.540;2023-07-13T15:42:44;23.40;84.70